Time;durP1;ratioP1;P1;durP2;ratioP2;P2;SDS_P1;SDS_P2;PMS_P1;PMS_P2;Temp;Humidity;BMP_temperature;BMP_pressure;BME280_temperature;BME280_humidity;BME280_pressure;Samples;Min_cycle;Max_cycle;Signal;HPM_P1;HPM_P2
2023/10/18 00:03:12;;;;;;;97.43;50.30;;;2.40;99.90;;;;;;5028739;28;20084;-88
2023/10/18 00:06:11;;;;;;;105.00;51.65;;;2.30;99.90;;;;;;5022264;28;20144;-87
2023/10/18 00:09:32;;;;;;;106.43;52.42;;;2.30;99.90;;;;;;5044617;28;20045;-84
2023/10/18 00:12:08;;;;;;;108.97;52.05;;;2.20;99.90;;;;;;5005623;28;20061;-89
2023/10/18 00:14:57;;;;;;;109.35;54.63;;;2.30;99.90;;;;;;5004224;28;20046;-89
2023/10/18 00:17:46;;;;;;;108.03;51.80;;;2.30;99.90;;;;;;5017173;28;20454;-89
2023/10/18 00:20:36;;;;;;;95.85;49.10;;;2.20;99.90;;;;;;5017749;28;20129;-89
2023/10/18 00:23:23;;;;;;;98.22;49.05;;;2.20;99.90;;;;;;5021312;28;20056;-87
2023/10/18 00:26:14;;;;;;;99.35;49.92;;;2.20;99.90;;;;;;5026487;28;20041;-87
2023/10/18 00:29:01;;;;;;;94.68;50.13;;;2.30;99.90;;;;;;5004805;28;20049;-87
2023/10/18 00:31:48;;;;;;;101.53;49.03;;;2.20;99.90;;;;;;5021165;28;20049;-89
2023/10/18 00:34:38;;;;;;;115.95;50.95;;;2.10;99.90;;;;;;4997941;28;20049;-89
2023/10/18 00:37:25;;;;;;;108.93;53.17;;;2.10;99.90;;;;;;5019316;28;20347;-88
2023/10/18 00:40:21;;;;;;;102.70;49.97;;;2.00;99.90;;;;;;5031741;28;20122;-86
2023/10/18 00:43:20;;;;;;;98.75;51.47;;;2.00;99.90;;;;;;5017322;28;20042;-89
2023/10/18 00:46:08;;;;;;;118.97;52.88;;;2.10;99.90;;;;;;5022236;28;20430;-88
2023/10/18 00:48:55;;;;;;;106.75;54.38;;;2.30;99.90;;;;;;5003154;28;20057;-89
2023/10/18 00:51:43;;;;;;;115.38;54.75;;;2.30;99.90;;;;;;5018913;28;20370;-89
2023/10/18 00:54:32;;;;;;;109.15;52.28;;;2.20;99.90;;;;;;5009595;28;20057;-88
2023/10/18 00:57:25;;;;;;;103.72;52.45;;;2.20;99.90;;;;;;5012387;28;20056;-88
2023/10/18 01:00:32;;;;;;;101.78;52.10;;;2.10;99.90;;;;;;5014391;28;20176;-87
2023/10/18 01:03:35;;;;;;;110.90;52.38;;;2.10;99.90;;;;;;5015653;28;20128;-88
2023/10/18 01:06:26;;;;;;;115.63;54.00;;;2.10;99.90;;;;;;5007531;28;20462;-89
2023/10/18 01:09:16;;;;;;;114.35;55.65;;;2.20;99.90;;;;;;5004711;28;20069;-81
2023/10/18 01:12:04;;;;;;;117.95;53.92;;;2.30;99.90;;;;;;5022080;28;20530;-89
2023/10/18 01:14:52;;;;;;;103.80;52.17;;;2.30;99.90;;;;;;5017459;28;20042;-89
2023/10/18 01:17:49;;;;;;;114.55;52.63;;;2.20;99.90;;;;;;5029991;28;20054;-83
2023/10/18 01:20:40;;;;;;;114.20;54.10;;;2.10;99.90;;;;;;5009177;28;20374;-89
2023/10/18 01:23:27;;;;;;;113.38;54.03;;;2.10;99.90;;;;;;4992861;28;20366;-89
2023/10/18 01:26:18;;;;;;;108.05;51.88;;;2.00;99.90;;;;;;5015983;28;20053;-88
2023/10/18 01:29:09;;;;;;;104.50;52.03;;;2.00;99.90;;;;;;5014400;28;20045;-89
2023/10/18 01:31:57;;;;;;;108.50;54.05;;;2.00;99.90;;;;;;5025332;28;20042;-89
2023/10/18 01:34:44;;;;;;;110.97;55.20;;;2.00;99.90;;;;;;5010368;28;20049;-89
2023/10/18 01:37:32;;;;;;;118.43;55.35;;;2.10;99.90;;;;;;5017013;28;20463;-88
2023/10/18 01:40:21;;;;;;;111.05;53.63;;;2.10;99.90;;;;;;5015581;28;20467;-88
2023/10/18 01:43:11;;;;;;;119.28;55.60;;;2.00;99.90;;;;;;5008138;28;20041;-89
2023/10/18 01:45:58;;;;;;;111.72;55.83;;;2.00;99.90;;;;;;5014152;28;20041;-88
2023/10/18 01:48:55;;;;;;;108.68;52.78;;;2.00;99.90;;;;;;5026132;28;20295;-87
2023/10/18 01:51:51;;;;;;;113.57;54.97;;;2.00;99.90;;;;;;4991146;28;20053;-88
2023/10/18 01:54:39;;;;;;;111.20;50.88;;;2.00;99.90;;;;;;5016925;28;20123;-89
2023/10/18 01:57:27;;;;;;;108.50;50.60;;;2.20;99.90;;;;;;5016722;28;20402;-88
2023/10/18 02:00:18;;;;;;;104.10;50.55;;;2.30;99.90;;;;;;5010176;28;20698;-88
2023/10/18 02:03:05;;;;;;;106.93;51.38;;;2.20;99.90;;;;;;5014925;28;20046;-90
2023/10/18 02:05:53;;;;;;;113.72;52.55;;;2.20;99.90;;;;;;5022700;28;20107;-85
2023/10/18 02:08:41;;;;;;;107.80;51.70;;;2.10;99.90;;;;;;5014668;28;20038;-89
2023/10/18 02:11:35;;;;;;;108.75;52.47;;;2.00;99.90;;;;;;5024044;28;20112;-90
2023/10/18 02:14:24;;;;;;;116.57;55.33;;;1.90;99.90;;;;;;4990467;28;20169;-88
2023/10/18 02:17:14;;;;;;;120.38;54.50;;;2.00;99.90;;;;;;5014109;28;20052;-89
2023/10/18 02:20:13;;;;;;;112.82;52.40;;;2.00;99.90;;;;;;5020082;28;20050;-89
2023/10/18 02:23:01;;;;;;;117.80;55.47;;;2.10;99.90;;;;;;5015522;28;20060;-87
2023/10/18 02:25:49;;;;;;;119.13;56.05;;;2.10;99.90;;;;;;5005667;28;20053;-89
2023/10/18 02:28:37;;;;;;;114.20;51.70;;;2.20;99.90;;;;;;5019800;28;20045;-90
2023/10/18 02:31:24;;;;;;;127.43;56.25;;;2.40;99.90;;;;;;5014250;28;20045;-88
2023/10/18 02:34:14;;;;;;;126.10;55.53;;;2.40;99.90;;;;;;5018349;28;20042;-89
2023/10/18 02:37:16;;;;;;;144.45;67.50;;;2.30;99.90;;;;;;5005027;28;20050;-87
2023/10/18 02:40:09;;;;;;;125.40;57.75;;;2.30;99.90;;;;;;5014654;28;20053;-87
2023/10/18 02:43:05;;;;;;;120.68;57.97;;;2.40;99.90;;;;;;5028871;28;20065;-80
2023/10/18 02:45:53;;;;;;;123.85;56.50;;;2.30;99.90;;;;;;5013698;28;20050;-88
2023/10/18 02:48:41;;;;;;;121.75;54.35;;;2.30;99.90;;;;;;4992802;28;20088;-89
2023/10/18 02:51:31;;;;;;;129.90;58.83;;;2.20;99.90;;;;;;5001511;28;20486;-86
2023/10/18 02:54:23;;;;;;;133.57;59.70;;;2.10;99.90;;;;;;5004622;28;20559;-91
2023/10/18 02:57:10;;;;;;;139.93;60.88;;;2.10;99.90;;;;;;5007533;28;20104;-89
2023/10/18 02:59:59;;;;;;;136.90;60.50;;;2.10;99.90;;;;;;5013445;28;20060;-89
2023/10/18 03:02:48;;;;;;;143.98;62.90;;;2.20;99.90;;;;;;5014066;28;20049;-88
2023/10/18 03:05:40;;;;;;;126.28;57.13;;;2.20;99.90;;;;;;5015656;28;20049;-90
2023/10/18 03:08:30;;;;;;;123.33;57.53;;;2.30;99.90;;;;;;5012638;28;20046;-88
2023/10/18 03:11:20;;;;;;;127.25;55.50;;;2.40;99.90;;;;;;5013130;28;20045;-88
2023/10/18 03:14:12;;;;;;;117.00;50.78;;;2.40;99.90;;;;;;4994873;28;20501;-88
2023/10/18 03:17:13;;;;;;;116.20;50.00;;;2.30;99.90;;;;;;4999466;28;20048;-88
2023/10/18 03:20:07;;;;;;;117.90;52.95;;;2.20;99.90;;;;;;5008158;28;20073;-90
2023/10/18 03:22:55;;;;;;;122.95;53.38;;;2.10;99.90;;;;;;5020063;28;20042;-89
2023/10/18 03:25:43;;;;;;;115.38;51.63;;;2.00;99.90;;;;;;5005619;28;20037;-90
2023/10/18 03:28:40;;;;;;;125.65;57.80;;;2.00;99.90;;;;;;5014797;28;20038;-89
2023/10/18 03:31:28;;;;;;;122.82;56.97;;;2.10;99.90;;;;;;5017872;28;20041;-88
2023/10/18 03:34:19;;;;;;;122.68;52.20;;;2.30;99.90;;;;;;5013098;28;20401;-89
2023/10/18 03:37:06;;;;;;;129.25;52.60;;;2.20;99.90;;;;;;5003280;28;20168;-88
2023/10/18 03:39:53;;;;;;;118.65;51.50;;;2.10;99.90;;;;;;5015384;28;20042;-82
2023/10/18 03:42:45;;;;;;;121.85;51.85;;;2.00;99.90;;;;;;5010406;28;20053;-89
2023/10/18 03:46:21;;;;;;;125.75;55.10;;;1.90;99.90;;;;;;5014178;28;20061;-89
2023/10/18 03:48:54;;;;;;;121.97;52.35;;;1.80;99.90;;;;;;5007305;28;20046;-90
2023/10/18 03:51:46;;;;;;;131.45;56.50;;;1.80;99.90;;;;;;5020502;28;20045;-89
2023/10/18 03:54:47;;;;;;;128.68;57.65;;;1.90;99.90;;;;;;5014714;28;20053;-90
2023/10/18 03:57:41;;;;;;;136.43;60.50;;;2.00;99.90;;;;;;5018769;28;20381;-90
2023/10/18 04:00:28;;;;;;;145.65;62.10;;;2.20;99.90;;;;;;5018563;28;20140;-88
2023/10/18 04:03:20;;;;;;;136.45;60.10;;;2.30;99.90;;;;;;5017385;28;20470;-89
2023/10/18 04:06:21;;;;;;;132.68;56.55;;;2.30;99.90;;;;;;5012193;28;20049;-88
2023/10/18 04:09:14;;;;;;;120.32;53.80;;;2.30;99.90;;;;;;5014567;28;20061;-86
2023/10/18 04:12:04;;;;;;;133.40;52.80;;;2.20;99.90;;;;;;5010457;28;20120;-88
2023/10/18 04:15:00;;;;;;;133.52;53.17;;;2.10;99.90;;;;;;5002958;28;20046;-89
2023/10/18 04:18:35;;;;;;;128.02;50.67;;;1.90;99.90;;;;;;5009093;28;20128;-87
2023/10/18 04:20:59;;;;;;;129.07;52.75;;;1.80;99.90;;;;;;5008965;28;20454;-89
2023/10/18 04:23:49;;;;;;;123.55;52.70;;;1.80;99.90;;;;;;5013417;28;20100;-86
2023/10/18 04:26:36;;;;;;;128.07;52.15;;;1.70;99.90;;;;;;5017519;28;20472;-88
2023/10/18 04:29:33;;;;;;;132.65;53.25;;;1.70;99.90;;;;;;5028015;28;20052;-88
2023/10/18 04:32:20;;;;;;;115.95;51.65;;;1.80;99.90;;;;;;5020799;28;20057;-86
2023/10/18 04:35:10;;;;;;;106.10;49.55;;;1.80;99.90;;;;;;5025184;28;20129;-87
2023/10/18 04:37:58;;;;;;;125.70;52.67;;;1.70;99.90;;;;;;5018574;28;20233;-87
2023/10/18 04:44:05;;;;;;;143.75;56.88;;;1.70;99.90;;;;;;5007914;28;20537;-89
2023/10/18 04:46:53;;;;;;;170.25;63.42;;;1.70;99.90;;;;;;5012411;28;20160;-89
2023/10/18 04:50:00;;;;;;;154.52;61.42;;;1.70;99.90;;;;;;5017845;28;20076;-87
2023/10/18 04:52:48;;;;;;;137.10;55.63;;;1.70;99.90;;;;;;5018159;28;20505;-89
2023/10/18 04:55:46;;;;;;;129.27;52.97;;;1.70;99.90;;;;;;5013049;28;20045;-87
2023/10/18 04:58:34;;;;;;;127.78;53.92;;;1.70;99.90;;;;;;5007903;28;20065;-87
2023/10/18 05:01:22;;;;;;;137.10;57.33;;;1.70;99.90;;;;;;5023106;28;20170;-87
2023/10/18 05:04:19;;;;;;;134.35;57.28;;;1.70;99.90;;;;;;5016045;28;20049;-85
2023/10/18 05:07:14;;;;;;;125.22;53.15;;;1.80;99.90;;;;;;5009490;28;20135;-86
2023/10/18 05:10:13;;;;;;;115.63;49.58;;;1.90;99.90;;;;;;5014915;28;20046;-86
2023/10/18 05:15:51;;;;;;;114.35;51.58;;;1.60;99.90;;;;;;5015867;28;20363;-82
2023/10/18 05:18:39;;;;;;;115.00;52.28;;;1.50;99.90;;;;;;5018387;28;20054;-91
2023/10/18 05:21:26;;;;;;;109.88;49.17;;;1.60;99.90;;;;;;5019752;28;20374;-87
2023/10/18 05:24:21;;;;;;;111.30;50.80;;;1.60;99.90;;;;;;5014788;28;20038;-86
2023/10/18 05:27:24;;;;;;;117.05;49.45;;;1.60;99.90;;;;;;5019801;28;20054;-90
2023/10/18 05:30:26;;;;;;;111.95;50.88;;;1.50;99.90;;;;;;5005562;28;20494;-89
2023/10/18 05:42:24;;;;;;;168.13;66.93;;;1.70;99.90;;;;;;4943446;28;20112;-89
2023/10/18 05:45:14;;;;;;;158.75;65.82;;;1.90;99.90;;;;;;5018864;28;20360;-88
2023/10/18 05:48:12;;;;;;;180.13;70.22;;;1.90;99.90;;;;;;5012897;28;20046;-88
2023/10/18 05:51:04;;;;;;;153.40;64.82;;;2.10;99.90;;;;;;5029349;28;20378;-88
2023/10/18 05:53:52;;;;;;;152.98;66.68;;;2.30;99.90;;;;;;5013541;28;20042;-89
2023/10/18 05:56:39;;;;;;;181.07;69.55;;;2.50;99.90;;;;;;5003502;28;20358;-89
2023/10/18 05:59:33;;;;;;;169.73;72.28;;;2.50;99.90;;;;;;5028059;28;20501;-89
2023/10/18 06:02:23;;;;;;;173.40;70.35;;;2.60;99.90;;;;;;5002529;28;20042;-87
2023/10/18 06:05:13;;;;;;;157.63;69.90;;;2.70;99.90;;;;;;4998208;28;20432;-90
2023/10/18 06:08:04;;;;;;;200.95;76.45;;;2.70;99.90;;;;;;5036286;28;20045;-89
2023/10/18 06:11:20;;;;;;;179.18;78.60;;;2.90;99.90;;;;;;5009440;28;20042;-90
2023/10/18 06:14:08;;;;;;;216.55;80.68;;;3.00;99.90;;;;;;5007349;28;20042;-89
2023/10/18 06:17:06;;;;;;;188.25;79.80;;;3.10;99.90;;;;;;5019667;28;20357;-90
2023/10/18 06:19:56;;;;;;;121.95;55.13;;;3.20;99.90;;;;;;5034076;28;20151;-88
2023/10/18 06:22:47;;;;;;;137.00;55.40;;;3.20;99.90;;;;;;5034016;28;20065;-89
2023/10/18 06:25:39;;;;;;;128.18;53.60;;;2.90;99.90;;;;;;5010975;28;20485;-88
2023/10/18 06:28:26;;;;;;;134.52;56.50;;;2.70;99.90;;;;;;5020115;28;20053;-89
2023/10/18 06:31:18;;;;;;;127.60;56.78;;;2.80;99.90;;;;;;5034340;28;20041;-87
2023/10/18 06:34:17;;;;;;;137.20;58.70;;;2.90;99.90;;;;;;5008226;28;20108;-89
2023/10/18 06:37:09;;;;;;;156.13;64.85;;;3.10;99.90;;;;;;5006268;28;20042;-85
2023/10/18 06:39:58;;;;;;;145.37;61.53;;;3.30;99.90;;;;;;5015821;28;20046;-87
2023/10/18 06:42:46;;;;;;;146.80;62.50;;;3.40;99.90;;;;;;5005571;28;20049;-87
2023/10/18 06:45:37;;;;;;;156.07;63.22;;;3.60;99.90;;;;;;5015654;28;20057;-89
2023/10/18 06:48:30;;;;;;;163.00;66.95;;;3.60;99.90;;;;;;5013513;28;20081;-89
2023/10/18 06:51:26;;;;;;;167.48;70.65;;;3.80;99.90;;;;;;5009166;28;20081;-81
2023/10/18 06:54:14;;;;;;;197.45;78.80;;;3.90;99.90;;;;;;5014021;28;20121;-87
2023/10/18 06:57:27;;;;;;;182.80;76.10;;;4.00;99.90;;;;;;5019714;28;20041;-88
2023/10/18 07:00:11;;;;;;;174.93;77.70;;;4.20;99.90;;;;;;5004636;28;20049;-89
2023/10/18 07:03:02;;;;;;;204.93;80.70;;;4.30;99.90;;;;;;5028602;28;20489;-86
2023/10/18 07:05:52;;;;;;;194.73;78.55;;;4.40;99.90;;;;;;5026848;28;20064;-87
2023/10/18 07:08:44;;;;;;;192.20;80.55;;;4.40;99.90;;;;;;5016969;28;20054;-88
2023/10/18 07:11:32;;;;;;;180.88;77.15;;;4.40;99.90;;;;;;5009021;28;20042;-87
2023/10/18 07:14:38;;;;;;;186.48;79.93;;;4.40;99.90;;;;;;5001750;28;20056;-88
2023/10/18 07:17:25;;;;;;;178.10;78.97;;;4.40;99.90;;;;;;5010316;28;20164;-85
2023/10/18 07:20:15;;;;;;;175.68;76.90;;;4.40;99.90;;;;;;4992917;28;20038;-88
2023/10/18 07:23:03;;;;;;;165.38;75.38;;;4.60;99.90;;;;;;5014697;28;20046;-89
2023/10/18 07:25:55;;;;;;;168.32;74.72;;;4.70;99.90;;;;;;4984653;28;20050;-90
2023/10/18 07:28:55;;;;;;;165.13;76.95;;;4.90;99.90;;;;;;5028777;28;20382;-90
2023/10/18 07:31:46;;;;;;;155.43;73.63;;;4.90;99.90;;;;;;4992706;28;20046;-89
2023/10/18 07:34:36;;;;;;;153.67;72.23;;;5.00;99.90;;;;;;5027572;28;20041;-89
2023/10/18 07:37:24;;;;;;;142.43;71.07;;;5.20;99.90;;;;;;5014937;28;20125;-88
2023/10/18 07:40:20;;;;;;;112.78;59.40;;;5.30;99.90;;;;;;5017048;28;20124;-89
2023/10/18 07:43:19;;;;;;;127.82;63.97;;;5.30;99.90;;;;;;5033524;28;20045;-87
2023/10/18 07:46:09;;;;;;;122.05;61.53;;;5.20;99.90;;;;;;5025730;28;20105;-80
2023/10/18 07:49:04;;;;;;;120.57;63.30;;;5.50;99.90;;;;;;5039383;28;20045;-86
2023/10/18 07:51:56;;;;;;;117.30;64.57;;;5.70;99.90;;;;;;5020604;28;20050;-86
2023/10/18 07:54:43;;;;;;;94.10;53.50;;;6.00;99.90;;;;;;5012004;28;20090;-91
2023/10/18 07:57:34;;;;;;;93.45;52.70;;;5.70;99.90;;;;;;5007965;28;20128;-89
2023/10/18 08:00:22;;;;;;;89.05;51.05;;;5.60;99.90;;;;;;5021565;28;20056;-89
2023/10/18 08:03:10;;;;;;;90.15;51.45;;;5.70;99.90;;;;;;5015615;28;20068;-89
2023/10/18 08:06:06;;;;;;;72.75;45.67;;;6.10;99.90;;;;;;5005606;28;20081;-88
2023/10/18 08:08:54;;;;;;;64.85;37.72;;;6.60;99.90;;;;;;5021676;28;20053;-89
2023/10/18 08:11:44;;;;;;;48.33;31.45;;;7.00;99.90;;;;;;5029249;28;20056;-86
2023/10/18 08:14:37;;;;;;;42.47;28.92;;;7.30;99.90;;;;;;5026352;28;20079;-85
2023/10/18 08:17:30;;;;;;;;;;;7.60;99.90;;;;;;5034136;28;20090;-85
2023/10/18 08:23:34;;;;;;;34.45;22.73;;;8.30;99.90;;;;;;5029012;28;20041;-89
2023/10/18 08:26:22;;;;;;;;;;;8.60;99.90;;;;;;5022116;28;20046;-87
2023/10/18 08:29:12;;;;;;;29.70;20.65;;;8.90;99.90;;;;;;5010529;28;20415;-88
2023/10/18 08:32:04;;;;;;;30.05;20.60;;;9.00;99.90;;;;;;5025190;28;20052;-89
2023/10/18 08:34:53;;;;;;;30.40;20.20;;;9.00;1.00;;;;;;5019095;28;20097;-88
2023/10/18 08:37:43;;;;;;;29.45;19.20;;;8.90;99.90;;;;;;5011939;28;20049;-91
2023/10/18 08:43:36;;;;;;;22.83;15.98;;;9.70;99.90;;;;;;5032105;28;20041;-87
2023/10/18 08:46:27;;;;;;;23.00;16.50;;;10.00;1.00;;;;;;5018297;28;20454;-91
2023/10/18 08:49:18;;;;;;;23.60;17.40;;;10.20;99.90;;;;;;5021335;28;20041;-88
2023/10/18 08:52:10;;;;;;;21.40;15.40;;;10.50;99.90;;;;;;5015953;28;20121;-90
2023/10/18 08:55:19;;;;;;;20.08;15.25;;;10.60;99.90;;;;;;5015198;28;20053;-90
2023/10/18 08:58:08;;;;;;;19.42;14.80;;;10.80;1.00;;;;;;5017322;28;20037;-90
2023/10/18 09:03:46;;;;;;;22.02;15.68;;;10.70;99.90;;;;;;5027841;28;20145;-88
2023/10/18 09:06:35;;;;;;;22.35;16.10;;;10.90;99.90;;;;;;5018324;28;20050;-89
2023/10/18 09:09:26;;;;;;;20.02;13.27;;;11.10;99.90;;;;;;5039601;28;20041;-84
2023/10/18 09:12:16;;;;;;;18.25;14.43;;;11.30;99.90;;;;;;5025877;28;20048;-88
2023/10/18 09:15:27;;;;;;;18.65;14.70;;;11.70;99.90;;;;;;5012641;28;20088;-85
2023/10/18 09:18:12;;;;;;;23.00;15.32;;;11.80;99.90;;;;;;5018314;28;20100;-87
2023/10/18 09:24:31;;;;;;;19.05;13.88;;;12.70;1.00;;;;;;5016475;28;20069;-89
2023/10/18 09:27:23;;;;;;;19.23;13.90;;;13.10;1.00;;;;;;5015749;28;20057;-90
2023/10/18 09:30:13;;;;;;;16.80;13.13;;;13.60;1.00;;;;;;5027149;28;20041;-85
2023/10/18 09:33:02;;;;;;;16.15;12.90;;;14.00;1.00;;;;;;5022673;28;20478;-88
2023/10/18 09:35:49;;;;;;;14.60;11.65;;;14.40;99.90;;;;;;5017042;28;20474;-90
2023/10/18 09:38:41;;;;;;;14.70;11.15;;;15.60;99.90;;;;;;5024182;28;20042;-90
2023/10/18 09:41:31;;;;;;;14.43;10.52;;;16.40;99.90;;;;;;5016774;28;20148;-91
2023/10/18 09:44:19;;;;;;;13.77;11.20;;;17.40;99.90;;;;;;5016262;28;20124;-91
2023/10/18 09:47:09;;;;;;;13.88;10.90;;;17.60;99.90;;;;;;5017038;28;20046;-91
2023/10/18 09:50:06;;;;;;;15.60;10.80;;;17.10;99.90;;;;;;5025376;28;20077;-88
2023/10/18 09:52:57;;;;;;;12.95;10.82;;;16.60;99.90;;;;;;5038205;28;20037;-89
2023/10/18 09:55:47;;;;;;;15.93;11.23;;;16.40;99.90;;;;;;5025483;28;20053;-90
2023/10/18 09:58:41;;;;;;;13.98;10.55;;;16.30;99.90;;;;;;5024487;28;20049;-89
2023/10/18 10:04:35;;;;;;;14.45;9.82;;;15.60;99.90;;;;;;5032247;28;20060;-88
2023/10/18 10:07:39;;;;;;;10.95;9.20;;;15.70;99.90;;;;;;5010090;28;20127;-89
2023/10/18 10:10:49;;;;;;;12.73;9.60;;;16.40;99.90;;;;;;5025874;28;20049;-90
2023/10/18 10:13:37;;;;;;;11.73;8.80;;;17.40;99.90;;;;;;5022778;28;20041;-88
2023/10/18 10:16:27;;;;;;;12.18;8.27;;;18.80;99.90;;;;;;5032743;28;20098;-88
2023/10/18 10:19:19;;;;;;;9.98;7.57;;;19.60;77.00;;;;;;5021804;28;20065;-89
2023/10/18 10:22:08;;;;;;;10.18;7.50;;;19.80;44.50;;;;;;5029437;28;20073;-90
2023/10/18 10:25:11;;;;;;;11.13;6.82;;;20.40;25.30;;;;;;5027884;28;20368;-89
2023/10/18 10:31:59;;;;;;;12.48;6.88;;;21.70;6.70;;;;;;5028896;28;20057;-87
2023/10/18 10:34:47;;;;;;;6.15;5.40;;;23.40;1.00;;;;;;5018933;28;20045;-85
2023/10/18 10:37:49;;;;;;;8.52;6.22;;;22.70;1.00;;;;;;5013721;28;20378;-88
2023/10/18 10:40:48;;;;;;;7.57;5.63;;;20.60;1.00;;;;;;5014009;28;20054;-88
2023/10/18 10:44:22;;;;;;;8.30;5.43;;;18.80;1.00;;;;;;5028973;28;20063;-90
2023/10/18 10:47:30;;;;;;;10.02;5.72;;;17.80;1.00;;;;;;5016376;28;20060;-89
2023/10/18 10:50:56;;;;;;;7.00;5.93;;;17.60;1.00;;;;;;5012034;28;20050;-89
2023/10/18 10:53:58;;;;;;;8.02;5.90;;;18.60;1.00;;;;;;5002877;28;20375;-90
2023/10/18 10:56:50;;;;;;;7.90;5.93;;;19.20;1.00;;;;;;5012375;28;20049;-92
2023/10/18 10:59:41;;;;;;;7.22;5.57;;;19.20;1.00;;;;;;5017137;28;20042;-88
2023/10/18 11:02:39;;;;;;;7.30;5.63;;;18.70;1.00;;;;;;5019127;28;20101;-91
2023/10/18 11:05:28;;;;;;;9.23;5.60;;;18.30;1.00;;;;;;5005783;28;20124;-89
2023/10/18 11:08:19;;;;;;;9.38;6.00;;;17.50;1.00;;;;;;4995965;28;20451;-90
2023/10/18 11:11:06;;;;;;;11.40;5.78;;;16.90;1.00;;;;;;5012655;28;20100;-90
2023/10/18 11:13:55;;;;;;;8.65;6.15;;;16.30;1.00;;;;;;5019037;28;20042;-90
2023/10/18 11:16:43;;;;;;;9.60;6.53;;;15.90;1.00;;;;;;5016434;28;20048;-90
2023/10/18 11:19:30;;;;;;;7.90;5.68;;;15.50;1.00;;;;;;5017045;28;20099;-90
2023/10/18 11:22:24;;;;;;;7.93;5.45;;;15.30;1.00;;;;;;5004882;28;20046;-89
2023/10/18 11:25:14;;;;;;;8.45;5.78;;;15.40;1.00;;;;;;5012709;28;20125;-89
2023/10/18 11:28:20;;;;;;;9.18;5.53;;;15.40;1.00;;;;;;5025510;28;20378;-89
2023/10/18 11:31:09;;;;;;;10.10;5.57;;;15.10;1.00;;;;;;5034573;28;20111;-89
2023/10/18 11:34:07;;;;;;;7.53;5.20;;;14.70;1.00;;;;;;5038465;28;20045;-90
2023/10/18 11:36:55;;;;;;;9.05;5.53;;;14.90;1.00;;;;;;5036452;28;20041;-89
2023/10/18 11:39:43;;;;;;;7.72;5.90;;;15.20;11.30;;;;;;5025725;28;20443;-81
2023/10/18 11:42:53;;;;;;;10.27;6.25;;;15.70;14.20;;;;;;5020386;28;20045;-89
2023/10/18 11:45:42;;;;;;;11.85;6.63;;;15.80;4.70;;;;;;5017567;28;20041;-86
2023/10/18 11:48:34;;;;;;;9.48;7.05;;;15.80;1.00;;;;;;5019835;28;20699;-89
2023/10/18 11:51:21;;;;;;;13.50;6.78;;;15.70;1.00;;;;;;5023318;28;20050;-82
2023/10/18 11:54:12;;;;;;;8.27;5.80;;;15.90;1.00;;;;;;5013277;28;20057;-88
2023/10/18 11:57:07;;;;;;;8.88;5.97;;;16.00;1.00;;;;;;5015308;28;20049;-89
2023/10/18 11:59:56;;;;;;;9.52;7.45;;;15.90;1.00;;;;;;5019549;28;20046;-88
2023/10/18 12:02:44;;;;;;;8.68;7.38;;;16.10;1.00;;;;;;5035941;28;20069;-89
2023/10/18 12:05:32;;;;;;;9.63;7.63;;;16.10;1.00;;;;;;5034281;28;20068;-90
2023/10/18 12:08:24;;;;;;;9.23;6.57;;;15.70;1.00;;;;;;5022464;28;20108;-90
2023/10/18 12:11:14;;;;;;;11.65;7.55;;;15.50;1.00;;;;;;5018913;28;20050;-89
2023/10/18 12:14:04;;;;;;;10.77;7.22;;;15.40;1.00;;;;;;5020734;28;20466;-86
2023/10/18 12:16:55;;;;;;;12.98;7.38;;;15.30;4.50;;;;;;4998041;28;20052;-89
2023/10/18 12:19:43;;;;;;;12.95;8.88;;;15.10;10.30;;;;;;4999700;28;20068;-89
2023/10/18 12:22:34;;;;;;;16.17;8.32;;;14.80;10.60;;;;;;5014418;28;20372;-90
2023/10/18 12:25:22;;;;;;;13.00;8.85;;;14.50;23.40;;;;;;5004713;28;20077;-88
2023/10/18 12:28:15;;;;;;;12.88;9.65;;;14.30;32.40;;;;;;5017321;28;20402;-88
2023/10/18 12:31:12;;;;;;;12.68;8.68;;;14.10;41.20;;;;;;5023394;28;20042;-89
2023/10/18 12:34:02;;;;;;;15.18;9.32;;;14.00;54.30;;;;;;5038514;28;20066;-85
2023/10/18 12:36:53;;;;;;;12.98;9.88;;;13.90;60.60;;;;;;5031293;28;20057;-87
2023/10/18 12:39:46;;;;;;;16.35;10.07;;;13.80;77.00;;;;;;5027477;28;20470;-83
2023/10/18 12:42:33;;;;;;;13.98;9.52;;;13.90;87.10;;;;;;5031271;28;20072;-89
2023/10/18 12:45:20;;;;;;;11.68;8.25;;;13.90;86.80;;;;;;5036643;28;20052;-87
2023/10/18 12:48:11;;;;;;;15.95;8.35;;;14.00;82.20;;;;;;5004870;28;20069;-87
2023/10/18 12:51:07;;;;;;;12.77;6.50;;;14.20;80.50;;;;;;5011670;28;20057;-88
2023/10/18 12:53:58;;;;;;;14.13;8.57;;;14.10;76.00;;;;;;5020569;28;20273;-87
2023/10/18 12:57:08;;;;;;;13.43;8.30;;;14.10;76.60;;;;;;5021358;28;20145;-88
2023/10/18 13:05:45;;;;;;;11.90;7.97;;;14.20;84.00;;;;;;5007567;28;20057;-89
2023/10/18 13:08:37;;;;;;;11.30;7.43;;;14.10;88.70;;;;;;5015901;28;20038;-87
2023/10/18 13:14:33;;;;;;;16.08;9.07;;;13.80;99.90;;;;;;5004835;28;20438;-87
2023/10/18 13:17:22;;;;;;;10.75;7.75;;;13.70;99.90;;;;;;5029431;28;20080;-88
2023/10/18 13:20:15;;;;;;;13.93;8.13;;;13.60;99.90;;;;;;5014149;28;20045;-89
2023/10/18 13:23:06;;;;;;;10.90;7.50;;;13.60;99.90;;;;;;5022608;28;20046;-89
2023/10/18 13:25:54;;;;;;;11.50;8.32;;;13.50;99.90;;;;;;5013075;28;20092;-89
2023/10/18 13:31:35;;;;;;;12.40;7.82;;;13.20;99.90;;;;;;5020345;28;20049;-89
2023/10/18 13:34:24;;;;;;;12.45;7.43;;;13.10;99.90;;;;;;5024956;28;20045;-89
2023/10/18 13:37:23;;;;;;;16.33;7.75;;;13.10;99.90;;;;;;5013331;28;20077;-89
2023/10/18 13:40:19;;;;;;;14.38;6.60;;;13.20;99.90;;;;;;5010278;28;20386;-89
2023/10/18 13:43:09;;;;;;;9.32;6.53;;;13.40;99.90;;;;;;5010136;28;20045;-89
2023/10/18 13:46:03;;;;;;;9.68;6.57;;;13.60;99.90;;;;;;5005934;28;20560;-90
2023/10/18 13:48:53;;;;;;;10.48;6.45;;;13.70;99.90;;;;;;5017109;28;20038;-89
2023/10/18 13:51:41;;;;;;;10.40;6.43;;;13.70;99.90;;;;;;5031519;28;20116;-83
2023/10/18 13:54:31;;;;;;;12.48;6.60;;;13.70;99.90;;;;;;5020028;28;20347;-89
2023/10/18 13:57:26;;;;;;;10.27;5.95;;;13.70;99.90;;;;;;4997427;28;20042;-87
2023/10/18 14:00:14;;;;;;;12.57;6.65;;;13.60;99.90;;;;;;5009343;28;20041;-88
2023/10/18 14:03:02;;;;;;;10.75;7.00;;;13.50;99.90;;;;;;5027234;28;20045;-88
2023/10/18 14:05:52;;;;;;;12.63;7.53;;;13.20;99.90;;;;;;5028266;28;20069;-91
2023/10/18 14:08:43;;;;;;;14.32;8.38;;;13.00;99.90;;;;;;5011697;28;20046;-88
2023/10/18 14:11:33;;;;;;;11.77;7.82;;;12.80;99.90;;;;;;5016413;28;20042;-89
2023/10/18 14:14:20;;;;;;;12.00;8.10;;;12.70;99.90;;;;;;5012975;28;20061;-91
2023/10/18 14:17:11;;;;;;;9.38;7.30;;;12.60;99.90;;;;;;5013619;28;20104;-90
2023/10/18 14:20:10;;;;;;;12.07;7.65;;;12.50;99.90;;;;;;5006741;28;20077;-89
2023/10/18 14:23:06;;;;;;;14.23;7.53;;;12.40;99.90;;;;;;5019236;28;20057;-88
2023/10/18 14:25:54;;;;;;;11.52;7.93;;;12.40;99.90;;;;;;5015152;28;20112;-90
2023/10/18 14:28:46;;;;;;;16.08;9.15;;;12.40;99.90;;;;;;5014698;28;20087;-88
2023/10/18 14:31:35;;;;;;;22.67;12.85;;;11.80;99.90;;;;;;5026032;28;20507;-87
2023/10/18 14:34:23;;;;;;;18.98;13.65;;;11.30;99.90;;;;;;5016014;28;20061;-88
2023/10/18 14:37:13;;;;;;;22.98;15.32;;;10.70;99.90;;;;;;5012769;28;20131;-86
2023/10/18 14:40:06;;;;;;;23.00;16.40;;;10.50;99.90;;;;;;5018489;28;20049;-88
2023/10/18 14:42:54;;;;;;;25.70;18.25;;;10.30;1.00;;;;;;5020726;28;20304;-85
2023/10/18 14:45:46;;;;;;;25.20;18.88;;;10.20;11.00;;;;;;5023311;28;20052;-86
2023/10/18 14:48:34;;;;;;;30.65;20.42;;;10.10;47.30;;;;;;4999885;28;20054;-79
2023/10/18 14:51:25;;;;;;;30.83;20.67;;;10.10;96.20;;;;;;5014043;28;20046;-87
2023/10/18 14:54:15;;;;;;;42.47;24.77;;;10.00;99.90;;;;;;5014977;28;20077;-86
2023/10/18 14:57:08;;;;;;;38.88;25.10;;;10.00;99.90;;;;;;5028419;28;20045;-86
2023/10/18 14:59:58;;;;;;;61.70;33.78;;;9.90;99.90;;;;;;5026098;28;20045;-87
2023/10/18 15:02:50;;;;;;;48.72;27.98;;;9.90;99.90;;;;;;5012233;28;20045;-86
2023/10/18 15:05:38;;;;;;;41.97;27.40;;;9.90;99.90;;;;;;5014459;28;20045;-87
2023/10/18 15:08:26;;;;;;;46.30;27.70;;;9.80;99.90;;;;;;5013894;28;20045;-85
2023/10/18 15:11:18;;;;;;;45.88;28.63;;;9.70;99.90;;;;;;5011083;28;20441;-87
2023/10/18 15:14:11;;;;;;;44.83;31.02;;;9.80;99.90;;;;;;5008468;28;20073;-87
2023/10/18 15:16:59;;;;;;;47.13;31.38;;;9.80;99.90;;;;;;5014295;28;20148;-85
2023/10/18 15:19:52;;;;;;;48.80;32.10;;;9.70;99.90;;;;;;5018390;28;20042;-87
2023/10/18 15:22:40;;;;;;;49.17;33.88;;;9.70;99.90;;;;;;5004914;28;20060;-87
2023/10/18 15:25:31;;;;;;;51.55;33.33;;;9.60;99.90;;;;;;5013155;28;20129;-85
2023/10/18 15:28:18;;;;;;;49.65;31.95;;;9.60;99.90;;;;;;5009640;28;20057;-86